AirNav   Air Wisconsin pilot careers
 
 1544 users online  

6OR6 Wonder Airport
Wonder, Oregon, USA

GOING TO WONDER?


FAA INFORMATION EFFECTIVE 03 JANUARY 2019

Location

FAA Identifier: 6OR6
Lat/Long: 42-23-29.4120N / 123-32-04.2350W
42-23.490200N / 123-32.070583W
42.3915033 / -123.5345097
(estimated)
Elevation: 1250 ft. / 381 m (estimated)
Variation: 18E (1985)
From city: 1 mile N of WONDER, OR
Time zone: UTC -8 (UTC -7 during Daylight Saving Time)
Zip code: 97527

Airport Operations

Airport use: Private use. Permission required prior to landing
Activation date: 11/1966
Control tower: no
ARTCC: SEATTLE CENTER
FSS: MC MINNVILLE FLIGHT SERVICE STATION
Attendance: CONTINUOUS
Wind indicator: yes
Segmented circle: no

Airport Communications

WX AWOS-3PT at 3S8 (10 nm NE): 120.0 (541-955-3392)

Nearby radio navigation aids

VOR radial/distance  VOR name  Freq  Var
OEDr240/28.0ROGUE VALLEY VORTAC113.6019E

 
NDB name  Hdg/Dist  Freq  Var  ID
MEDFORD254/29.135616EMEF -- . ..-.

Airport Services

Airframe service: NONE
Powerplant service: NONE

Runway Information

Runway 15/33

Dimensions: 1100 x 50 ft. / 335 x 15 m
Surface: turf/dirt
RUNWAY 15  RUNWAY 33
Traffic pattern: leftleft
Obstructions: 600 ft. hill, 1000 ft. from runway1000 ft. hill, 4000 ft. from runway

Airport Ownership and Management from official FAA records

Ownership: Privately-owned
Owner: DAVID A. BASSETT, P.E.
500 WONDER LANE
WILDERVILLE, OR 97543
Phone 541-660-3131
Manager: DAVID A. BASSETT, P.E.
500 WONDER LANE
WILDERVILLE, OR 97543
Phone 541-660-3131

Airport Operational Statistics

Aircraft based on the field: 1
Single engine airplanes: 1
    

Additional Remarks

A30 RWY 15/33 LNDG TO NORTH AND TKOF TO SOUTH.
9% GRADE SLOPING TO 18% GRADE TO NORTH.

Instrument Procedures

There are no published instrument procedures at 6OR6.

Some nearby airports with instrument procedures:

3S8 - Grants Pass Airport (10 nm NE)
KMFR - Rogue Valley International - Medford Airport (29 nm E)
KCEC - Jack Mc Namara Field Airport (48 nm SW)
KRBG - Roseburg Regional Airport (51 nm N)
KSIY - Siskiyou County Airport (60 nm SE)
 
Loc | Ops | Rwys | IFR | FBO | Links
Com | Nav | Svcs | Stats | Notes
Area around 6OR6 (Wonder Airport)
 
Road maps at: MapQuest Bing Google
 
Aerial photo
WARNING: Photo may not be current or correct
Aerial photo of 6OR6 (Wonder Airport)
Do you have a better or more recent aerial photo of Wonder Airport that you would like to share? If so, please send us your photo.

 
Sectional chart

 
Airport distance calculator
Flying to Wonder Airport? Find the distance to fly.

From to 6OR6

Sunrise and sunset
Times for 21-Jan-2019
 Local
(UTC-8)
 Zulu
(UTC)
Morning civil twilight07:0815:08
Sunrise07:3815:38
Sunset17:1301:13
Evening civil twilight17:4301:43

Current date and time
Zulu (UTC)  21-Jan-2019 17:07:45
Local (UTC-8)  21-Jan-2019 09:07:45
 
METAR
K3S8 
10nm NE 
211655Z AUTO 11004KT 7SM FEW005 SCT039 OVC047 04/04 A3028 RMK AO2
KSXT 
15nm NE 
211656Z AUTO 00000KT 1/4SM FZFG BKN002 OVC016 M01/M01 A3017 RMK AO2 SLP241 T10061006
3S4 
18nm S 
SuperAWOS
211555Z AUTO 00000KT 10SM 02/02 A3021
TAF
KMFR 
30nm E 
211144Z 2112/2212 00000KT P6SM -RA BKN035 OVC050 FM220700 00000KT 4SM BR SCT005 FM220900 00000KT 1/2SM FG OVC003
NOTAMs
Click for the latest NOTAMs
NOTAMs are issued by the DoD/FAA and will open in a separate window not controlled by AirNav.

 

 
 

Would you like to see your business listed on this page?

 If your business provides an interesting product or service to pilots, flight crews, aircraft, or users of the Wonder Airport, you should consider listing it here.  To start the listing process, click on the button below
 
Add a business
 

Other Pages about Wonder Airport

Update a link
 
Copyright © AirNav, LLC. All rights reserved. Privacy Policy  Contact